Time;durP1;ratioP1;P1;durP2;ratioP2;P2;SDS_P1;SDS_P2;PMS_P1;PMS_P2;Temp;Humidity;BMP_temperature;BMP_pressure;BME280_temperature;BME280_humidity;BME280_pressure;Samples;Min_cycle;Max_cycle;Signal;HPM_P1;HPM_P2
2021/11/25 00:05:48;;;;;;;5.53;5.03;;;23.00;56.30;;;;;;31621996;28;20064;-38
2021/11/25 00:20:50;;;;;;;2.95;2.67;;;23.60;55.60;;;;;;31625660;28;20064;-50
2021/11/25 00:35:52;;;;;;;2.88;2.58;;;23.50;55.80;;;;;;31627802;28;20134;-51
2021/11/25 00:50:54;;;;;;;1.98;1.73;;;23.40;55.90;;;;;;31624126;28;20056;-42
2021/11/25 01:05:56;;;;;;;0.98;0.93;;;23.30;56.00;;;;;;31624555;28;20045;-44
2021/11/25 01:20:59;;;;;;;0.40;0.40;;;23.20;56.10;;;;;;31625393;28;20476;-39
2021/11/25 01:36:02;;;;;;;1.27;1.17;;;23.10;56.30;;;;;;31620342;28;20047;-43
2021/11/25 01:51:04;;;;;;;0.75;0.75;;;23.00;56.50;;;;;;31621418;28;20056;-38
2021/11/25 02:06:08;;;;;;;10.02;8.90;;;22.90;56.60;;;;;;31619299;28;20044;-47
2021/11/25 02:21:11;;;;;;;8.13;6.90;;;22.80;56.00;;;;;;31644120;28;20044;-46
2021/11/25 02:36:13;;;;;;;6.53;5.75;;;23.30;55.80;;;;;;31646636;28;20064;-50
2021/11/25 02:51:19;;;;;;;4.80;4.30;;;23.40;55.80;;;;;;31640504;28;20045;-48
2021/11/25 03:06:22;;;;;;;6.32;5.22;;;23.30;56.30;;;;;;31637424;28;20048;-50
2021/11/25 03:21:25;;;;;;;3.80;3.42;;;23.20;56.10;;;;;;31638035;28;20045;-52
2021/11/25 03:36:28;;;;;;;4.68;4.28;;;23.00;56.40;;;;;;31634542;28;20048;-46
2021/11/25 03:51:30;;;;;;;4.03;2.15;;;22.90;55.80;;;;;;31631475;28;20079;-44
2021/11/25 04:06:32;;;;;;;1.77;1.40;;;22.90;56.90;;;;;;31634904;28;20096;-48
2021/11/25 04:21:34;;;;;;;1.80;1.63;;;23.40;55.90;;;;;;31635486;28;20477;-47
2021/11/25 04:36:36;;;;;;;1.17;1.08;;;23.50;55.60;;;;;;31608410;28;20045;-49
2021/11/25 04:51:39;;;;;;;1.00;0.98;;;23.30;56.20;;;;;;31615763;28;20052;-49
2021/11/25 05:06:41;;;;;;;6.25;2.45;;;23.20;56.10;;;;;;31624340;28;20055;-49
2021/11/25 05:21:43;;;;;;;2.38;1.83;;;23.00;56.50;;;;;;31586981;28;20040;-47
2021/11/25 05:36:46;;;;;;;4.78;3.00;;;23.00;57.10;;;;;;31620270;28;20048;-49
2021/11/25 05:51:48;;;;;;;5.80;1.20;;;22.90;57.50;;;;;;31621797;28;20131;-43
2021/11/25 06:06:50;;;;;;;4.45;1.65;;;23.20;57.30;;;;;;31553241;28;20060;-42
2021/11/25 06:21:52;;;;;;;8.30;6.53;;;23.50;56.40;;;;;;31475038;28;20109;-40
2021/11/25 06:36:54;;;;;;;12.65;6.40;;;23.30;53.80;;;;;;31546095;28;20131;-41
2021/11/25 06:51:56;;;;;;;4.07;3.47;;;23.20;52.30;;;;;;31530118;28;20060;-42
2021/11/25 07:06:58;;;;;;;8.63;7.82;;;23.10;51.30;;;;;;31621403;28;20044;-41
2021/11/25 07:22:00;;;;;;;7.25;4.00;;;22.80;49.20;;;;;;31571492;28;20096;-38
2021/11/25 07:37:03;;;;;;;11.07;5.10;;;23.00;48.20;;;;;;31516559;28;20041;-37
2021/11/25 07:52:06;;;;;;;6.20;3.08;;;22.90;45.60;;;;;;31623798;28;20056;-41
2021/11/25 08:07:09;;;;;;;5.45;2.55;;;22.90;46.10;;;;;;31540977;28;20047;-36
2021/11/25 08:22:13;;;;;;;9.90;2.95;;;22.90;46.70;;;;;;31507793;28;20048;-44
2021/11/25 08:37:15;;;;;;;4.68;2.63;;;22.90;47.80;;;;;;31501084;28;20045;-45
2021/11/25 08:52:22;;;;;;;6.28;1.85;;;22.60;49.10;;;;;;31498956;28;20057;-46
2021/11/25 09:07:24;;;;;;;1.83;1.55;;;22.60;49.60;;;;;;31497673;28;20064;-45
2021/11/25 09:22:26;;;;;;;6.90;4.07;;;23.10;49.80;;;;;;31496466;28;20082;-43
2021/11/25 09:37:29;;;;;;;5.75;4.82;;;23.20;49.10;;;;;;31494949;28;20045;-40
2021/11/25 09:52:31;;;;;;;6.93;5.22;;;23.10;48.30;;;;;;31494287;28;20056;-48
2021/11/25 10:07:37;;;;;;;7.25;4.35;;;23.00;49.10;;;;;;31555591;28;20051;-45
2021/11/25 10:22:39;;;;;;;10.90;5.85;;;22.90;49.70;;;;;;31600095;28;20049;-41
2021/11/25 10:53:09;;;;;;;1.92;1.73;;;22.60;49.30;;;;;;31631599;28;20108;-41
2021/11/25 11:08:11;;;;;;;2.50;1.88;;;23.00;50.30;;;;;;31634903;28;20040;-45
2021/11/25 11:23:18;;;;;;;2.38;1.90;;;23.30;49.90;;;;;;31634795;28;20100;-47
2021/11/25 11:38:20;;;;;;;1.73;1.50;;;23.20;49.90;;;;;;31633104;28;20049;-44
2021/11/25 11:53:25;;;;;;;2.05;1.55;;;23.10;50.20;;;;;;31630439;28;20082;-41
2021/11/25 12:08:30;;;;;;;2.30;2.15;;;23.00;50.30;;;;;;31629517;28;20040;-40
2021/11/25 12:23:39;;;;;;;1.83;1.02;;;22.90;50.50;;;;;;31627489;28;20051;-44
2021/11/25 12:38:41;;;;;;;0.80;0.80;;;23.20;50.20;;;;;;31608232;28;20062;-41
2021/11/25 12:53:50;;;;;;;0.98;0.88;;;23.40;50.00;;;;;;31605271;28;20048;-44
2021/11/25 13:08:53;;;;;;;1.03;0.93;;;23.20;50.30;;;;;;31604921;28;20116;-45
2021/11/25 13:24:08;;;;;;;10.13;4.70;;;23.10;50.30;;;;;;31584006;28;20048;-49
2021/11/25 13:39:38;;;;;;;8.10;5.22;;;23.00;50.90;;;;;;31618933;28;20036;-50
2021/11/25 13:54:40;;;;;;;1.52;0.50;;;22.90;51.20;;;;;;31601653;28;20056;-50
2021/11/25 14:09:42;;;;;;;5.68;1.27;;;23.20;51.00;;;;;;31630795;28;20068;-49
2021/11/25 14:24:45;;;;;;;17.23;2.03;;;23.40;51.10;;;;;;31643458;28;20116;-42
2021/11/25 14:39:48;;;;;;;5.30;2.10;;;23.30;51.40;;;;;;31639589;28;20055;-40
2021/11/25 14:55:12;;;;;;;9.38;2.22;;;23.00;51.80;;;;;;31637657;28;20100;-43
2021/11/25 15:10:14;;;;;;;11.85;3.83;;;23.00;52.00;;;;;;31621362;28;20044;-41
2021/11/25 15:25:25;;;;;;;16.89;4.50;;;22.90;52.20;;;;;;31520143;28;10000876;-42
2021/11/25 15:40:28;;;;;;;26.52;8.77;;;22.90;52.80;;;;;;31539545;28;20273;-41
2021/11/25 15:55:31;;;;;;;84.75;28.05;;;22.80;53.10;;;;;;31519400;28;20048;-43
2021/11/25 16:10:33;;;;;;;51.30;20.52;;;22.70;54.80;;;;;;31606069;28;20131;-43
2021/11/25 16:25:36;;;;;;;42.95;14.77;;;22.70;54.10;;;;;;31541734;28;20049;-41
2021/11/25 16:40:40;;;;;;;42.80;15.13;;;23.20;54.80;;;;;;31526054;28;20064;-41
2021/11/25 16:55:46;;;;;;;33.63;12.32;;;23.40;56.00;;;;;;31584822;28;20075;-42
2021/11/25 17:10:50;;;;;;;36.60;13.07;;;23.40;56.40;;;;;;31524945;28;20131;-39
2021/11/25 17:25:52;;;;;;;31.45;11.57;;;23.30;56.60;;;;;;31574637;28;20048;-41
2021/11/25 17:40:54;;;;;;;24.88;10.82;;;23.10;56.80;;;;;;31573031;28;20040;-38
2021/11/25 17:55:57;;;;;;;25.17;11.00;;;23.00;56.80;;;;;;31607276;28;20057;-44
2021/11/25 18:10:59;;;;;;;20.58;8.80;;;23.00;57.40;;;;;;31583142;28;20055;-48
2021/11/25 18:26:13;;;;;;;18.92;8.23;;;23.10;56.90;;;;;;31506681;28;20048;-53
2021/11/25 18:41:17;;;;;;;17.95;8.68;;;23.00;56.80;;;;;;31549237;28;20041;-45
2021/11/25 18:56:21;;;;;;;20.38;10.30;;;23.00;56.80;;;;;;31504473;28;20060;-45
2021/11/25 19:11:24;;;;;;;21.17;8.10;;;22.90;56.90;;;;;;31140123;28;10000838;-53
2021/11/25 19:26:27;;;;;;;15.45;8.02;;;22.90;57.50;;;;;;31500250;28;20052;-52
2021/11/25 19:41:29;;;;;;;13.15;6.40;;;22.90;57.70;;;;;;31505617;28;20065;-51
2021/11/25 19:56:31;;;;;;;14.75;6.72;;;22.80;57.70;;;;;;31506259;28;20048;-54
2021/11/25 20:11:34;;;;;;;13.60;6.10;;;22.70;58.00;;;;;;31508387;28;20104;-44
2021/11/25 20:26:37;;;;;;;9.70;5.03;;;23.00;59.80;;;;;;31505855;28;21081;-54
2021/11/25 20:41:44;;;;;;;8.48;5.05;;;23.40;59.50;;;;;;31503255;28;20041;-51
2021/11/25 20:56:47;;;;;;;6.10;3.75;;;23.40;58.80;;;;;;31504460;28;20060;-53
2021/11/25 21:11:49;;;;;;;8.32;4.82;;;23.40;58.60;;;;;;31498232;28;20069;-43
2021/11/25 21:26:58;;;;;;;7.20;4.20;;;23.30;58.60;;;;;;31500551;28;20049;-39
2021/11/25 21:42:01;;;;;;;6.97;3.97;;;23.20;58.80;;;;;;31501150;28;20124;-49
2021/11/25 21:57:04;;;;;;;6.22;3.65;;;23.20;58.80;;;;;;31500181;28;20079;-47
2021/11/25 22:12:06;;;;;;;6.35;3.40;;;23.00;59.20;;;;;;31497488;28;20073;-45
2021/11/25 22:27:08;;;;;;;6.88;4.20;;;22.90;59.60;;;;;;31504568;28;20056;-37
2021/11/25 22:42:11;;;;;;;5.88;4.20;;;22.90;59.20;;;;;;31520811;28;20052;-45
2021/11/25 22:57:13;;;;;;;7.53;3.90;;;23.30;59.40;;;;;;31519497;28;20091;-51
2021/11/25 23:12:16;;;;;;;5.85;3.22;;;23.40;58.90;;;;;;31514076;28;20041;-45
2021/11/25 23:27:18;;;;;;;3.88;2.90;;;23.30;58.60;;;;;;31618263;28;20044;-38
2021/11/25 23:42:20;;;;;;;3.83;2.72;;;23.30;58.90;;;;;;31636542;28;20045;-40
2021/11/25 23:57:23;;;;;;;3.92;2.45;;;23.20;58.80;;;;;;31636999;28;20052;-44
